sensor_id;sensor_type;location;lat;lon;timestamp;temperature;humidity
68485;DHT22;55472;50.060;21.960;2022-12-18T00:03:55;-5.50;97.10
68485;DHT22;55472;50.060;21.960;2022-12-18T00:06:22;-5.50;97.10
68485;DHT22;55472;50.060;21.960;2022-12-18T00:08:49;-5.50;97.30
68485;DHT22;55472;50.060;21.960;2022-12-18T00:11:21;-5.50;97.40
68485;DHT22;55472;50.060;21.960;2022-12-18T00:13:50;-5.50;97.40
68485;DHT22;55472;50.060;21.960;2022-12-18T00:16:19;-5.50;97.30
68485;DHT22;55472;50.060;21.960;2022-12-18T00:18:47;-5.40;97.10
68485;DHT22;55472;50.060;21.960;2022-12-18T00:21:15;-5.50;97.10
68485;DHT22;55472;50.060;21.960;2022-12-18T00:23:43;-5.50;97.30
68485;DHT22;55472;50.060;21.960;2022-12-18T00:26:36;-5.40;97.30
68485;DHT22;55472;50.060;21.960;2022-12-18T00:29:10;-5.50;97.40
68485;DHT22;55472;50.060;21.960;2022-12-18T00:31:39;-5.40;97.50
68485;DHT22;55472;50.060;21.960;2022-12-18T00:34:06;-5.40;97.60
68485;DHT22;55472;50.060;21.960;2022-12-18T00:36:34;-5.40;97.70
68485;DHT22;55472;50.060;21.960;2022-12-18T00:39:02;-5.40;97.40
68485;DHT22;55472;50.060;21.960;2022-12-18T00:41:29;-5.40;97.20
68485;DHT22;55472;50.060;21.960;2022-12-18T00:44:16;-5.40;97.20
68485;DHT22;55472;50.060;21.960;2022-12-18T00:46:44;-5.40;97.10
68485;DHT22;55472;50.060;21.960;2022-12-18T00:49:11;-5.40;96.80
68485;DHT22;55472;50.060;21.960;2022-12-18T00:51:37;-5.40;96.50
68485;DHT22;55472;50.060;21.960;2022-12-18T00:54:03;-5.40;96.20
68485;DHT22;55472;50.060;21.960;2022-12-18T00:56:29;-5.40;95.90
68485;DHT22;55472;50.060;21.960;2022-12-18T00:58:55;-5.50;95.70
68485;DHT22;55472;50.060;21.960;2022-12-18T01:01:21;-5.50;95.70
68485;DHT22;55472;50.060;21.960;2022-12-18T01:03:47;-5.50;95.60
68485;DHT22;55472;50.060;21.960;2022-12-18T01:06:15;-5.50;95.80
68485;DHT22;55472;50.060;21.960;2022-12-18T01:08:42;-5.50;95.40
68485;DHT22;55472;50.060;21.960;2022-12-18T01:11:17;-5.50;94.90
68485;DHT22;55472;50.060;21.960;2022-12-18T01:13:45;-5.60;95.10
68485;DHT22;55472;50.060;21.960;2022-12-18T01:16:13;-5.60;95.00
68485;DHT22;55472;50.060;21.960;2022-12-18T01:18:40;-5.60;94.90
68485;DHT22;55472;50.060;21.960;2022-12-18T01:21:08;-5.70;95.00
68485;DHT22;55472;50.060;21.960;2022-12-18T01:23:36;-5.70;94.90
68485;DHT22;55472;50.060;21.960;2022-12-18T01:26:12;-5.70;94.70
68485;DHT22;55472;50.060;21.960;2022-12-18T01:28:43;-5.70;94.30
68485;DHT22;55472;50.060;21.960;2022-12-18T01:31:22;-5.70;94.50
68485;DHT22;55472;50.060;21.960;2022-12-18T01:33:50;-5.70;94.50
68485;DHT22;55472;50.060;21.960;2022-12-18T01:38:46;-5.80;94.20
68485;DHT22;55472;50.060;21.960;2022-12-18T01:41:15;-5.80;94.40
68485;DHT22;55472;50.060;21.960;2022-12-18T01:46:11;-5.80;94.30
68485;DHT22;55472;50.060;21.960;2022-12-18T01:48:39;-5.80;94.70
68485;DHT22;55472;50.060;21.960;2022-12-18T01:51:07;-5.90;94.80
68485;DHT22;55472;50.060;21.960;2022-12-18T01:53:36;-5.90;95.40
68485;DHT22;55472;50.060;21.960;2022-12-18T01:56:03;-5.90;95.60
68485;DHT22;55472;50.060;21.960;2022-12-18T01:58:36;-5.90;95.90
68485;DHT22;55472;50.060;21.960;2022-12-18T02:01:07;-5.90;96.10
68485;DHT22;55472;50.060;21.960;2022-12-18T02:03:34;-5.90;96.30
68485;DHT22;55472;50.060;21.960;2022-12-18T02:06:09;-5.90;96.50
68485;DHT22;55472;50.060;21.960;2022-12-18T02:09:02;-5.90;96.60
68485;DHT22;55472;50.060;21.960;2022-12-18T02:17:56;-5.90;97.30
68485;DHT22;55472;50.060;21.960;2022-12-18T02:20:34;-5.90;97.40
68485;DHT22;55472;50.060;21.960;2022-12-18T02:23:28;-5.90;97.60
68485;DHT22;55472;50.060;21.960;2022-12-18T02:26:11;-5.90;97.80
68485;DHT22;55472;50.060;21.960;2022-12-18T02:28:51;-5.90;98.10
68485;DHT22;55472;50.060;21.960;2022-12-18T02:31:27;-5.90;98.10
68485;DHT22;55472;50.060;21.960;2022-12-18T02:34:00;-5.90;98.20
68485;DHT22;55472;50.060;21.960;2022-12-18T02:36:29;-5.90;98.60
68485;DHT22;55472;50.060;21.960;2022-12-18T02:38:56;-5.90;98.80
68485;DHT22;55472;50.060;21.960;2022-12-18T02:41:25;-5.90;98.80
68485;DHT22;55472;50.060;21.960;2022-12-18T02:44:01;-5.90;98.90
68485;DHT22;55472;50.060;21.960;2022-12-18T02:52:16;-5.90;98.70
68485;DHT22;55472;50.060;21.960;2022-12-18T02:55:44;-5.90;98.90
68485;DHT22;55472;50.060;21.960;2022-12-18T02:58:33;-5.90;99.00
68485;DHT22;55472;50.060;21.960;2022-12-18T03:06:55;-5.90;98.60
68485;DHT22;55472;50.060;21.960;2022-12-18T03:09:38;-5.90;98.50
68485;DHT22;55472;50.060;21.960;2022-12-18T03:12:27;-5.90;98.30
68485;DHT22;55472;50.060;21.960;2022-12-18T03:17:56;-5.90;98.00
68485;DHT22;55472;50.060;21.960;2022-12-18T03:20:26;-5.90;97.70
68485;DHT22;55472;50.060;21.960;2022-12-18T03:23:01;-5.90;97.70
68485;DHT22;55472;50.060;21.960;2022-12-18T03:25:31;-5.90;97.70
68485;DHT22;55472;50.060;21.960;2022-12-18T03:28:00;-5.90;97.50
68485;DHT22;55472;50.060;21.960;2022-12-18T03:30:29;-5.90;97.30
68485;DHT22;55472;50.060;21.960;2022-12-18T03:33:10;-5.90;97.30
68485;DHT22;55472;50.060;21.960;2022-12-18T03:35:42;-5.90;97.40
68485;DHT22;55472;50.060;21.960;2022-12-18T03:38:09;-5.90;97.40
68485;DHT22;55472;50.060;21.960;2022-12-18T03:41:03;-5.90;97.40
68485;DHT22;55472;50.060;21.960;2022-12-18T03:44:21;-5.90;97.30
68485;DHT22;55472;50.060;21.960;2022-12-18T03:47:03;-5.90;97.10
68485;DHT22;55472;50.060;21.960;2022-12-18T03:52:46;-5.90;96.40
68485;DHT22;55472;50.060;21.960;2022-12-18T03:55:17;-5.90;96.30
68485;DHT22;55472;50.060;21.960;2022-12-18T03:57:46;-5.90;96.20
68485;DHT22;55472;50.060;21.960;2022-12-18T04:00:16;-5.90;96.10
68485;DHT22;55472;50.060;21.960;2022-12-18T04:02:48;-5.90;95.90
68485;DHT22;55472;50.060;21.960;2022-12-18T04:05:18;-6.00;95.10
68485;DHT22;55472;50.060;21.960;2022-12-18T04:07:47;-6.00;94.60
68485;DHT22;55472;50.060;21.960;2022-12-18T04:10:16;-6.00;94.40
68485;DHT22;55472;50.060;21.960;2022-12-18T04:12:43;-6.10;93.80
68485;DHT22;55472;50.060;21.960;2022-12-18T04:15:10;-6.10;93.60
68485;DHT22;55472;50.060;21.960;2022-12-18T04:17:38;-6.10;93.60
68485;DHT22;55472;50.060;21.960;2022-12-18T04:20:05;-6.10;93.50
68485;DHT22;55472;50.060;21.960;2022-12-18T04:22:32;-6.20;93.20
68485;DHT22;55472;50.060;21.960;2022-12-18T04:24:58;-6.20;93.20
68485;DHT22;55472;50.060;21.960;2022-12-18T04:27:24;-6.20;93.20
68485;DHT22;55472;50.060;21.960;2022-12-18T04:29:50;-6.20;93.20
68485;DHT22;55472;50.060;21.960;2022-12-18T04:32:16;-6.20;93.40
68485;DHT22;55472;50.060;21.960;2022-12-18T04:34:42;-6.30;93.60
68485;DHT22;55472;50.060;21.960;2022-12-18T04:37:08;-6.30;93.60
68485;DHT22;55472;50.060;21.960;2022-12-18T04:39:34;-6.30;93.60
68485;DHT22;55472;50.060;21.960;2022-12-18T04:42:01;-6.30;93.70
68485;DHT22;55472;50.060;21.960;2022-12-18T04:44:27;-6.30;93.60
68485;DHT22;55472;50.060;21.960;2022-12-18T04:46:54;-6.30;93.40
68485;DHT22;55472;50.060;21.960;2022-12-18T04:49:19;-6.30;93.20
68485;DHT22;55472;50.060;21.960;2022-12-18T04:51:46;-6.30;93.40
68485;DHT22;55472;50.060;21.960;2022-12-18T04:54:12;-6.30;93.40
68485;DHT22;55472;50.060;21.960;2022-12-18T04:56:38;-6.30;93.50
68485;DHT22;55472;50.060;21.960;2022-12-18T04:59:04;-6.30;93.40
68485;DHT22;55472;50.060;21.960;2022-12-18T05:01:33;-6.20;93.30
68485;DHT22;55472;50.060;21.960;2022-12-18T05:03:59;-6.20;93.40
68485;DHT22;55472;50.060;21.960;2022-12-18T05:06:26;-6.20;93.40
68485;DHT22;55472;50.060;21.960;2022-12-18T05:08:52;-6.20;93.10
68485;DHT22;55472;50.060;21.960;2022-12-18T05:11:18;-6.20;92.80
68485;DHT22;55472;50.060;21.960;2022-12-18T05:13:45;-6.20;92.70
68485;DHT22;55472;50.060;21.960;2022-12-18T05:16:11;-6.30;92.90
68485;DHT22;55472;50.060;21.960;2022-12-18T05:18:38;-6.30;92.80
68485;DHT22;55472;50.060;21.960;2022-12-18T05:21:05;-6.30;92.90
68485;DHT22;55472;50.060;21.960;2022-12-18T05:23:31;-6.30;92.70
68485;DHT22;55472;50.060;21.960;2022-12-18T05:25:59;-6.30;92.60
68485;DHT22;55472;50.060;21.960;2022-12-18T05:28:28;-6.20;92.20
68485;DHT22;55472;50.060;21.960;2022-12-18T05:30:57;-6.20;91.70
68485;DHT22;55472;50.060;21.960;2022-12-18T05:33:26;-6.20;91.80
68485;DHT22;55472;50.060;21.960;2022-12-18T05:35:57;-6.20;91.50
68485;DHT22;55472;50.060;21.960;2022-12-18T05:38:28;-6.20;91.40
68485;DHT22;55472;50.060;21.960;2022-12-18T05:40:55;-6.20;91.30
68485;DHT22;55472;50.060;21.960;2022-12-18T05:43:22;-6.20;90.80
68485;DHT22;55472;50.060;21.960;2022-12-18T05:45:50;-6.30;90.90
68485;DHT22;55472;50.060;21.960;2022-12-18T05:48:17;-6.30;90.70
68485;DHT22;55472;50.060;21.960;2022-12-18T05:50:44;-6.30;90.70
68485;DHT22;55472;50.060;21.960;2022-12-18T05:53:12;-6.30;90.80
68485;DHT22;55472;50.060;21.960;2022-12-18T05:55:41;-6.30;90.70
68485;DHT22;55472;50.060;21.960;2022-12-18T05:58:09;-6.30;91.00
68485;DHT22;55472;50.060;21.960;2022-12-18T06:00:37;-6.20;91.20
68485;DHT22;55472;50.060;21.960;2022-12-18T06:03:06;-6.30;90.80
68485;DHT22;55472;50.060;21.960;2022-12-18T06:05:42;-6.30;90.60
68485;DHT22;55472;50.060;21.960;2022-12-18T06:08:09;-6.30;90.50
68485;DHT22;55472;50.060;21.960;2022-12-18T06:10:36;-6.30;90.50
68485;DHT22;55472;50.060;21.960;2022-12-18T06:13:03;-6.20;90.70
68485;DHT22;55472;50.060;21.960;2022-12-18T06:15:30;-6.20;91.00
68485;DHT22;55472;50.060;21.960;2022-12-18T06:17:56;-6.20;91.20
68485;DHT22;55472;50.060;21.960;2022-12-18T06:20:22;-6.20;90.80
68485;DHT22;55472;50.060;21.960;2022-12-18T06:22:48;-6.20;90.80
68485;DHT22;55472;50.060;21.960;2022-12-18T06:25:15;-6.20;90.80
68485;DHT22;55472;50.060;21.960;2022-12-18T06:27:41;-6.20;90.70
68485;DHT22;55472;50.060;21.960;2022-12-18T06:30:08;-6.20;90.70
68485;DHT22;55472;50.060;21.960;2022-12-18T06:32:34;-6.10;90.70
68485;DHT22;55472;50.060;21.960;2022-12-18T06:35:00;-6.20;90.70
68485;DHT22;55472;50.060;21.960;2022-12-18T06:37:26;-6.20;90.50
68485;DHT22;55472;50.060;21.960;2022-12-18T06:39:53;-6.20;90.40
68485;DHT22;55472;50.060;21.960;2022-12-18T06:42:19;-6.20;90.80
68485;DHT22;55472;50.060;21.960;2022-12-18T06:44:48;-6.10;90.90
68485;DHT22;55472;50.060;21.960;2022-12-18T06:47:14;-6.10;90.80
68485;DHT22;55472;50.060;21.960;2022-12-18T06:49:41;-6.10;90.80
68485;DHT22;55472;50.060;21.960;2022-12-18T06:52:07;-6.10;90.70
68485;DHT22;55472;50.060;21.960;2022-12-18T06:54:33;-6.10;90.70
68485;DHT22;55472;50.060;21.960;2022-12-18T06:56:59;-6.10;90.80
68485;DHT22;55472;50.060;21.960;2022-12-18T06:59:25;-6.10;90.80
68485;DHT22;55472;50.060;21.960;2022-12-18T07:01:51;-6.00;90.90
68485;DHT22;55472;50.060;21.960;2022-12-18T07:04:17;-6.00;90.90
68485;DHT22;55472;50.060;21.960;2022-12-18T07:06:43;-6.00;91.00
68485;DHT22;55472;50.060;21.960;2022-12-18T07:09:09;-6.00;90.90
68485;DHT22;55472;50.060;21.960;2022-12-18T07:11:35;-6.00;91.10
68485;DHT22;55472;50.060;21.960;2022-12-18T07:14:02;-5.90;91.10
68485;DHT22;55472;50.060;21.960;2022-12-18T07:16:28;-5.90;91.10
68485;DHT22;55472;50.060;21.960;2022-12-18T07:18:55;-5.90;91.00
68485;DHT22;55472;50.060;21.960;2022-12-18T07:21:22;-5.90;91.00
68485;DHT22;55472;50.060;21.960;2022-12-18T07:23:49;-5.80;91.00
68485;DHT22;55472;50.060;21.960;2022-12-18T07:26:17;-5.80;91.10
68485;DHT22;55472;50.060;21.960;2022-12-18T07:28:45;-5.80;91.10
68485;DHT22;55472;50.060;21.960;2022-12-18T07:31:13;-5.80;91.10
68485;DHT22;55472;50.060;21.960;2022-12-18T07:33:42;-5.80;91.20
68485;DHT22;55472;50.060;21.960;2022-12-18T07:36:09;-5.80;91.20
68485;DHT22;55472;50.060;21.960;2022-12-18T07:38:36;-5.70;91.30
68485;DHT22;55472;50.060;21.960;2022-12-18T07:41:06;-5.70;91.40
68485;DHT22;55472;50.060;21.960;2022-12-18T07:43:35;-5.70;91.40
68485;DHT22;55472;50.060;21.960;2022-12-18T07:46:02;-5.70;91.40
68485;DHT22;55472;50.060;21.960;2022-12-18T07:48:28;-5.60;91.70
68485;DHT22;55472;50.060;21.960;2022-12-18T07:51:03;-5.60;91.70
68485;DHT22;55472;50.060;21.960;2022-12-18T07:53:32;-5.60;91.70
68485;DHT22;55472;50.060;21.960;2022-12-18T07:56:04;-5.50;91.70
68485;DHT22;55472;50.060;21.960;2022-12-18T07:58:32;-5.50;92.00
68485;DHT22;55472;50.060;21.960;2022-12-18T08:01:17;-5.50;92.00
68485;DHT22;55472;50.060;21.960;2022-12-18T08:03:43;-5.50;92.20
68485;DHT22;55472;50.060;21.960;2022-12-18T08:06:10;-5.40;92.00
68485;DHT22;55472;50.060;21.960;2022-12-18T08:08:36;-5.40;92.00
68485;DHT22;55472;50.060;21.960;2022-12-18T08:11:29;-5.40;92.40
68485;DHT22;55472;50.060;21.960;2022-12-18T08:13:57;-5.30;92.20
68485;DHT22;55472;50.060;21.960;2022-12-18T08:16:33;-5.30;92.00
68485;DHT22;55472;50.060;21.960;2022-12-18T08:19:00;-5.30;92.20
68485;DHT22;55472;50.060;21.960;2022-12-18T08:21:29;-5.20;92.00
68485;DHT22;55472;50.060;21.960;2022-12-18T08:23:59;-5.20;92.00
68485;DHT22;55472;50.060;21.960;2022-12-18T08:26:29;-5.20;92.00
68485;DHT22;55472;50.060;21.960;2022-12-18T08:28:57;-5.20;92.00
68485;DHT22;55472;50.060;21.960;2022-12-18T08:31:26;-5.10;92.10
68485;DHT22;55472;50.060;21.960;2022-12-18T08:33:53;-5.10;92.00
68485;DHT22;55472;50.060;21.960;2022-12-18T08:36:25;-5.00;91.90
68485;DHT22;55472;50.060;21.960;2022-12-18T08:38:53;-5.00;91.70
68485;DHT22;55472;50.060;21.960;2022-12-18T08:41:31;-5.00;91.90
68485;DHT22;55472;50.060;21.960;2022-12-18T08:44:07;-5.00;91.80
68485;DHT22;55472;50.060;21.960;2022-12-18T08:46:52;-5.00;92.10
68485;DHT22;55472;50.060;21.960;2022-12-18T08:49:18;-5.00;91.90
68485;DHT22;55472;50.060;21.960;2022-12-18T08:51:44;-4.90;91.90
68485;DHT22;55472;50.060;21.960;2022-12-18T08:54:13;-4.90;91.90
68485;DHT22;55472;50.060;21.960;2022-12-18T08:56:42;-4.90;91.90
68485;DHT22;55472;50.060;21.960;2022-12-18T08:59:09;-4.90;91.70
68485;DHT22;55472;50.060;21.960;2022-12-18T09:01:35;-4.90;91.70
68485;DHT22;55472;50.060;21.960;2022-12-18T09:04:01;-4.80;91.50
68485;DHT22;55472;50.060;21.960;2022-12-18T09:06:49;-4.80;91.60
68485;DHT22;55472;50.060;21.960;2022-12-18T09:09:31;-4.80;91.50
68485;DHT22;55472;50.060;21.960;2022-12-18T09:11:57;-4.80;91.50
68485;DHT22;55472;50.060;21.960;2022-12-18T09:14:23;-4.80;91.30
68485;DHT22;55472;50.060;21.960;2022-12-18T09:16:49;-4.80;91.10
68485;DHT22;55472;50.060;21.960;2022-12-18T09:19:15;-4.80;90.90
68485;DHT22;55472;50.060;21.960;2022-12-18T09:21:42;-4.70;91.00
68485;DHT22;55472;50.060;21.960;2022-12-18T09:24:12;-4.70;90.80
68485;DHT22;55472;50.060;21.960;2022-12-18T09:26:39;-4.70;90.60
68485;DHT22;55472;50.060;21.960;2022-12-18T09:29:05;-4.70;90.50
68485;DHT22;55472;50.060;21.960;2022-12-18T09:31:33;-4.70;90.90
68485;DHT22;55472;50.060;21.960;2022-12-18T09:34:00;-4.60;91.10
68485;DHT22;55472;50.060;21.960;2022-12-18T09:36:42;-4.60;90.20
68485;DHT22;55472;50.060;21.960;2022-12-18T09:39:09;-4.60;89.60
68485;DHT22;55472;50.060;21.960;2022-12-18T09:41:44;-4.60;89.70
68485;DHT22;55472;50.060;21.960;2022-12-18T09:44:25;-4.60;89.40
68485;DHT22;55472;50.060;21.960;2022-12-18T09:49:46;-4.70;89.80
68485;DHT22;55472;50.060;21.960;2022-12-18T09:52:21;-4.70;90.00
68485;DHT22;55472;50.060;21.960;2022-12-18T09:55:00;-4.60;89.80
68485;DHT22;55472;50.060;21.960;2022-12-18T09:57:33;-4.60;89.60
68485;DHT22;55472;50.060;21.960;2022-12-18T10:00:18;-4.60;89.50
68485;DHT22;55472;50.060;21.960;2022-12-18T10:02:47;-4.60;89.50
68485;DHT22;55472;50.060;21.960;2022-12-18T10:05:17;-4.60;89.50
68485;DHT22;55472;50.060;21.960;2022-12-18T10:07:58;-4.60;88.90
68485;DHT22;55472;50.060;21.960;2022-12-18T10:10:57;-4.60;88.60
68485;DHT22;55472;50.060;21.960;2022-12-18T10:13:42;-4.60;88.50
68485;DHT22;55472;50.060;21.960;2022-12-18T10:16:29;-4.50;88.30
68485;DHT22;55472;50.060;21.960;2022-12-18T10:28:37;-4.50;88.20
68485;DHT22;55472;50.060;21.960;2022-12-18T10:31:23;-4.50;87.90
68485;DHT22;55472;50.060;21.960;2022-12-18T10:33:50;-4.50;87.80
68485;DHT22;55472;50.060;21.960;2022-12-18T10:36:17;-4.40;87.90
68485;DHT22;55472;50.060;21.960;2022-12-18T10:38:43;-4.40;87.80
68485;DHT22;55472;50.060;21.960;2022-12-18T10:43:48;-4.40;87.40
68485;DHT22;55472;50.060;21.960;2022-12-18T10:46:19;-4.40;86.60
68485;DHT22;55472;50.060;21.960;2022-12-18T10:48:56;-4.40;85.80
68485;DHT22;55472;50.060;21.960;2022-12-18T10:51:30;-4.40;85.90
68485;DHT22;55472;50.060;21.960;2022-12-18T10:54:13;-4.40;86.30
68485;DHT22;55472;50.060;21.960;2022-12-18T10:56:40;-4.40;86.60
68485;DHT22;55472;50.060;21.960;2022-12-18T10:59:11;-4.40;86.10
68485;DHT22;55472;50.060;21.960;2022-12-18T11:02:07;-4.40;86.20
68485;DHT22;55472;50.060;21.960;2022-12-18T11:04:52;-4.40;86.10
68485;DHT22;55472;50.060;21.960;2022-12-18T11:07:18;-4.40;86.60
68485;DHT22;55472;50.060;21.960;2022-12-18T11:10:03;-4.40;86.50
68485;DHT22;55472;50.060;21.960;2022-12-18T11:12:30;-4.40;86.60
68485;DHT22;55472;50.060;21.960;2022-12-18T11:14:57;-4.40;87.10
68485;DHT22;55472;50.060;21.960;2022-12-18T11:17:41;-4.40;87.20
68485;DHT22;55472;50.060;21.960;2022-12-18T11:20:29;-4.40;87.50
68485;DHT22;55472;50.060;21.960;2022-12-18T11:23:12;-4.40;87.30
68485;DHT22;55472;50.060;21.960;2022-12-18T11:25:39;-4.40;87.10
68485;DHT22;55472;50.060;21.960;2022-12-18T11:31:27;-4.40;86.90
68485;DHT22;55472;50.060;21.960;2022-12-18T11:34:01;-4.40;86.60
68485;DHT22;55472;50.060;21.960;2022-12-18T11:36:42;-4.40;87.00
68485;DHT22;55472;50.060;21.960;2022-12-18T11:39:36;-4.40;87.20
68485;DHT22;55472;50.060;21.960;2022-12-18T11:42:12;-4.40;86.90
68485;DHT22;55472;50.060;21.960;2022-12-18T11:45:35;-4.40;86.50
68485;DHT22;55472;50.060;21.960;2022-12-18T11:50:51;-4.30;86.20
68485;DHT22;55472;50.060;21.960;2022-12-18T11:53:19;-4.40;86.00
68485;DHT22;55472;50.060;21.960;2022-12-18T12:04:58;-4.40;86.20
68485;DHT22;55472;50.060;21.960;2022-12-18T12:10:30;-4.40;85.90
68485;DHT22;55472;50.060;21.960;2022-12-18T12:14:13;-4.40;85.60
68485;DHT22;55472;50.060;21.960;2022-12-18T12:16:37;-4.40;85.90
68485;DHT22;55472;50.060;21.960;2022-12-18T12:25:32;-4.40;85.60
68485;DHT22;55472;50.060;21.960;2022-12-18T12:31:05;-4.40;85.10
68485;DHT22;55472;50.060;21.960;2022-12-18T12:39:22;-4.50;84.10
68485;DHT22;55472;50.060;21.960;2022-12-18T12:42:05;-4.50;84.10
68485;DHT22;55472;50.060;21.960;2022-12-18T12:44:58;-4.50;84.70
68485;DHT22;55472;50.060;21.960;2022-12-18T12:47:32;-4.50;84.70
68485;DHT22;55472;50.060;21.960;2022-12-18T12:50:02;-4.50;85.00
68485;DHT22;55472;50.060;21.960;2022-12-18T12:52:34;-4.50;84.80
68485;DHT22;55472;50.060;21.960;2022-12-18T12:55:07;-4.50;84.60
68485;DHT22;55472;50.060;21.960;2022-12-18T12:57:44;-4.50;84.50
68485;DHT22;55472;50.060;21.960;2022-12-18T13:00:16;-4.50;84.90
68485;DHT22;55472;50.060;21.960;2022-12-18T13:02:47;-4.50;84.80
68485;DHT22;55472;50.060;21.960;2022-12-18T13:06:16;-4.50;84.60
68485;DHT22;55472;50.060;21.960;2022-12-18T13:08:32;-4.50;83.70
68485;DHT22;55472;50.060;21.960;2022-12-18T13:11:46;-4.60;83.30
68485;DHT22;55472;50.060;21.960;2022-12-18T13:14:39;-4.50;83.40
68485;DHT22;55472;50.060;21.960;2022-12-18T13:19:51;-4.50;83.50
68485;DHT22;55472;50.060;21.960;2022-12-18T13:22:34;-4.60;83.30
68485;DHT22;55472;50.060;21.960;2022-12-18T13:25:28;-4.60;83.30
68485;DHT22;55472;50.060;21.960;2022-12-18T13:30:45;-4.60;83.70
68485;DHT22;55472;50.060;21.960;2022-12-18T13:33:37;-4.70;84.30
68485;DHT22;55472;50.060;21.960;2022-12-18T13:39:34;-4.70;84.40
68485;DHT22;55472;50.060;21.960;2022-12-18T13:44:45;-4.70;85.30
68485;DHT22;55472;50.060;21.960;2022-12-18T13:47:32;-4.70;85.20
68485;DHT22;55472;50.060;21.960;2022-12-18T13:50:22;-4.70;85.10
68485;DHT22;55472;50.060;21.960;2022-12-18T13:53:39;-4.70;84.80
68485;DHT22;55472;50.060;21.960;2022-12-18T13:56:16;-4.70;84.70
68485;DHT22;55472;50.060;21.960;2022-12-18T13:58:42;-4.80;84.70
68485;DHT22;55472;50.060;21.960;2022-12-18T14:01:22;-4.80;84.90
68485;DHT22;55472;50.060;21.960;2022-12-18T14:03:51;-4.80;84.60
68485;DHT22;55472;50.060;21.960;2022-12-18T14:10:25;-4.90;83.80
68485;DHT22;55472;50.060;21.960;2022-12-18T14:12:54;-4.90;83.30
68485;DHT22;55472;50.060;21.960;2022-12-18T14:18:07;-5.00;82.90
68485;DHT22;55472;50.060;21.960;2022-12-18T14:20:50;-5.00;83.40
68485;DHT22;55472;50.060;21.960;2022-12-18T14:24:02;-5.00;83.60
68485;DHT22;55472;50.060;21.960;2022-12-18T14:27:25;-5.10;83.50
68485;DHT22;55472;50.060;21.960;2022-12-18T14:29:51;-5.10;83.20
68485;DHT22;55472;50.060;21.960;2022-12-18T14:32:19;-5.20;83.60
68485;DHT22;55472;50.060;21.960;2022-12-18T14:34:51;-5.20;83.30
68485;DHT22;55472;50.060;21.960;2022-12-18T14:37:26;-5.20;83.40
68485;DHT22;55472;50.060;21.960;2022-12-18T14:42:24;-5.20;83.90
68485;DHT22;55472;50.060;21.960;2022-12-18T14:47:58;-5.30;83.90
68485;DHT22;55472;50.060;21.960;2022-12-18T14:50:25;-5.30;84.20
68485;DHT22;55472;50.060;21.960;2022-12-18T14:52:52;-5.30;84.30
68485;DHT22;55472;50.060;21.960;2022-12-18T14:55:19;-5.30;84.50
68485;DHT22;55472;50.060;21.960;2022-12-18T14:57:50;-5.30;84.70
68485;DHT22;55472;50.060;21.960;2022-12-18T15:00:21;-5.40;84.30
68485;DHT22;55472;50.060;21.960;2022-12-18T15:02:54;-5.40;84.30
68485;DHT22;55472;50.060;21.960;2022-12-18T15:05:27;-5.40;84.10
68485;DHT22;55472;50.060;21.960;2022-12-18T15:07:57;-5.40;83.80
68485;DHT22;55472;50.060;21.960;2022-12-18T15:10:26;-5.40;83.90
68485;DHT22;55472;50.060;21.960;2022-12-18T15:20:53;-5.40;85.60
68485;DHT22;55472;50.060;21.960;2022-12-18T15:26:01;-5.40;85.30
68485;DHT22;55472;50.060;21.960;2022-12-18T15:28:36;-5.40;85.50
68485;DHT22;55472;50.060;21.960;2022-12-18T15:31:57;-5.40;85.60
68485;DHT22;55472;50.060;21.960;2022-12-18T15:36:34;-5.40;85.90
68485;DHT22;55472;50.060;21.960;2022-12-18T15:39:04;-5.40;85.60
68485;DHT22;55472;50.060;21.960;2022-12-18T15:41:35;-5.40;85.80
68485;DHT22;55472;50.060;21.960;2022-12-18T15:44:03;-5.40;86.20
68485;DHT22;55472;50.060;21.960;2022-12-18T15:46:49;-5.40;85.70
68485;DHT22;55472;50.060;21.960;2022-12-18T15:49:15;-5.40;85.30
68485;DHT22;55472;50.060;21.960;2022-12-18T15:51:42;-5.40;85.60
68485;DHT22;55472;50.060;21.960;2022-12-18T15:54:13;-5.40;85.50
68485;DHT22;55472;50.060;21.960;2022-12-18T15:56:42;-5.40;85.50
68485;DHT22;55472;50.060;21.960;2022-12-18T15:59:26;-5.40;85.90
68485;DHT22;55472;50.060;21.960;2022-12-18T16:01:55;-5.40;85.90
68485;DHT22;55472;50.060;21.960;2022-12-18T16:04:22;-5.40;85.90
68485;DHT22;55472;50.060;21.960;2022-12-18T16:06:49;-5.40;86.00
68485;DHT22;55472;50.060;21.960;2022-12-18T16:09:17;-5.40;86.40
68485;DHT22;55472;50.060;21.960;2022-12-18T16:11:44;-5.40;86.20
68485;DHT22;55472;50.060;21.960;2022-12-18T16:14:29;-5.40;86.30
68485;DHT22;55472;50.060;21.960;2022-12-18T16:17:01;-5.40;86.10
68485;DHT22;55472;50.060;21.960;2022-12-18T16:19:28;-5.40;86.10
68485;DHT22;55472;50.060;21.960;2022-12-18T16:21:57;-5.50;85.50
68485;DHT22;55472;50.060;21.960;2022-12-18T16:24:29;-5.40;85.30
68485;DHT22;55472;50.060;21.960;2022-12-18T16:26:59;-5.50;84.90
68485;DHT22;55472;50.060;21.960;2022-12-18T16:29:26;-5.50;85.30
68485;DHT22;55472;50.060;21.960;2022-12-18T16:31:58;-5.50;85.10
68485;DHT22;55472;50.060;21.960;2022-12-18T16:34:30;-5.50;84.80
68485;DHT22;55472;50.060;21.960;2022-12-18T16:37:03;-5.50;84.80
68485;DHT22;55472;50.060;21.960;2022-12-18T16:39:31;-5.50;85.00
68485;DHT22;55472;50.060;21.960;2022-12-18T16:41:59;-5.50;84.90
68485;DHT22;55472;50.060;21.960;2022-12-18T16:44:26;-5.50;85.10
68485;DHT22;55472;50.060;21.960;2022-12-18T16:46:52;-5.50;85.40
68485;DHT22;55472;50.060;21.960;2022-12-18T16:49:19;-5.60;85.50
68485;DHT22;55472;50.060;21.960;2022-12-18T16:51:46;-5.60;83.90
68485;DHT22;55472;50.060;21.960;2022-12-18T16:54:12;-5.60;84.30
68485;DHT22;55472;50.060;21.960;2022-12-18T16:56:38;-5.60;83.30
68485;DHT22;55472;50.060;21.960;2022-12-18T16:59:05;-5.60;83.20
68485;DHT22;55472;50.060;21.960;2022-12-18T17:01:31;-5.60;82.90
68485;DHT22;55472;50.060;21.960;2022-12-18T17:04:02;-5.60;83.30
68485;DHT22;55472;50.060;21.960;2022-12-18T17:06:33;-5.60;83.40
68485;DHT22;55472;50.060;21.960;2022-12-18T17:09:02;-5.60;83.00
68485;DHT22;55472;50.060;21.960;2022-12-18T17:11:32;-5.60;83.80
68485;DHT22;55472;50.060;21.960;2022-12-18T17:13:59;-5.60;83.70
68485;DHT22;55472;50.060;21.960;2022-12-18T17:16:31;-5.60;83.60
68485;DHT22;55472;50.060;21.960;2022-12-18T17:18:57;-5.60;83.50
68485;DHT22;55472;50.060;21.960;2022-12-18T17:21:23;-5.60;84.40
68485;DHT22;55472;50.060;21.960;2022-12-18T17:23:49;-5.60;83.60
68485;DHT22;55472;50.060;21.960;2022-12-18T17:26:16;-5.60;83.50
68485;DHT22;55472;50.060;21.960;2022-12-18T17:28:42;-5.60;83.60
68485;DHT22;55472;50.060;21.960;2022-12-18T17:31:17;-5.60;83.50
68485;DHT22;55472;50.060;21.960;2022-12-18T17:33:45;-5.50;83.50
68485;DHT22;55472;50.060;21.960;2022-12-18T17:36:12;-5.60;83.60
68485;DHT22;55472;50.060;21.960;2022-12-18T17:38:42;-5.60;83.10
68485;DHT22;55472;50.060;21.960;2022-12-18T17:41:10;-5.50;82.70
68485;DHT22;55472;50.060;21.960;2022-12-18T17:43:37;-5.60;82.00